logo dgac
Martes 28 de Mayo del 2024
Buscar por aerodromo o helipuerto
Ingrese nombre de aeródromo, localidad o designador OACI:
TAF: TAF SCIP 280403Z 2806/2906 11008KT 9999 FEW025 TX21/2820Z TN16/2807Z TEMPO 2806/2809 VRB02KT 5000 -SHRA SCT010 BKN025 BECMG 2818/2820 05005KT SCT020 BKN045 TEMPO 2900/2906 5000 -SHRA BKN010 BKN030
TAF del 28/05/2024 a las 04:03 UTC
Para mayor información visite www.meteochile.gob.cl
Período de validez: desde el 28 a las 06:00 UTC hasta el 29 a las 06:00 UTC
Viento: dirección 110 grados, velocidad 8 nudos
Visibilidad: 10 km o más
Nubes: Escasa nubosidad a 2500 pies sobre el nivel del aeródromo
Temperatura máxima: 21ºC el 28 a las 20:00 UTC
Temperatura mínima: 16ºC el 28 a las 07:00 UTC
Se espera en forma temporal entre las 06:00 UTC del 28 y las 09:00 UTC del 28:
Viento: dirección variable, velocidad 2 nudos
Visibilidad: 5000 metros
Débil ChubascosLluvia
Nubes: Nubosidad parcial a 1000 pies sobre el nivel del aeródromo
Nubes: Nublado a 2500 pies sobre el nivel del aeródromo
Se espera un cambio entre las 18:00 UTC del 28 y las 20:00 UTC del 28, :
Viento: dirección 050 grados, velocidad 5 nudos
Nubes: Nubosidad parcial a 2000 pies sobre el nivel del aeródromo
Nubes: Nublado a 4500 pies sobre el nivel del aeródromo
Se espera en forma temporal entre las 00:00 UTC del 29 y las 06:00 UTC del 29:
Visibilidad: 5000 metros
Débil ChubascosLluvia
Nubes: Nublado a 1000 pies sobre el nivel del aeródromo
Nubes: Nublado a 3000 pies sobre el nivel del aeródromo